sensor_id;sensor_type;location;lat;lon;timestamp;P1;durP1;ratioP1;P2;durP2;ratioP2
61385;SDS011;47256;18.904;-99.054;2023-04-03T00:01:14;11.90;;;6.18;;
61385;SDS011;47256;18.904;-99.054;2023-04-03T00:03:42;31.83;;;6.55;;
61385;SDS011;47256;18.904;-99.054;2023-04-03T00:06:10;26.50;;;6.88;;
61385;SDS011;47256;18.904;-99.054;2023-04-03T00:08:38;30.73;;;6.43;;
61385;SDS011;47256;18.904;-99.054;2023-04-03T00:11:06;17.75;;;4.72;;
61385;SDS011;47256;18.904;-99.054;2023-04-03T00:13:34;12.02;;;4.85;;
61385;SDS011;47256;18.904;-99.054;2023-04-03T00:16:02;13.57;;;5.30;;
61385;SDS011;47256;18.904;-99.054;2023-04-03T00:18:29;11.63;;;5.80;;
61385;SDS011;47256;18.904;-99.054;2023-04-03T00:20:57;17.70;;;6.75;;
61385;SDS011;47256;18.904;-99.054;2023-04-03T00:23:26;14.00;;;7.25;;
61385;SDS011;47256;18.904;-99.054;2023-04-03T00:25:53;33.78;;;8.60;;
61385;SDS011;47256;18.904;-99.054;2023-04-03T00:28:21;26.52;;;7.07;;
61385;SDS011;47256;18.904;-99.054;2023-04-03T00:30:49;32.45;;;8.52;;
61385;SDS011;47256;18.904;-99.054;2023-04-03T00:33:17;31.17;;;8.95;;
61385;SDS011;47256;18.904;-99.054;2023-04-03T00:35:48;29.92;;;9.07;;
61385;SDS011;47256;18.904;-99.054;2023-04-03T00:38:17;15.00;;;8.25;;
61385;SDS011;47256;18.904;-99.054;2023-04-03T00:40:45;50.10;;;9.57;;
61385;SDS011;47256;18.904;-99.054;2023-04-03T00:43:19;23.85;;;9.30;;
61385;SDS011;47256;18.904;-99.054;2023-04-03T00:45:53;20.40;;;8.73;;
61385;SDS011;47256;18.904;-99.054;2023-04-03T00:48:28;18.83;;;9.43;;
61385;SDS011;47256;18.904;-99.054;2023-04-03T00:51:22;11.48;;;5.85;;
61385;SDS011;47256;18.904;-99.054;2023-04-03T00:53:54;14.55;;;6.15;;
61385;SDS011;47256;18.904;-99.054;2023-04-03T00:56:26;15.32;;;6.65;;
61385;SDS011;47256;18.904;-99.054;2023-04-03T00:59:02;13.15;;;6.55;;
61385;SDS011;47256;18.904;-99.054;2023-04-03T01:01:39;21.05;;;6.60;;
61385;SDS011;47256;18.904;-99.054;2023-04-03T01:04:52;12.82;;;5.90;;
61385;SDS011;47256;18.904;-99.054;2023-04-03T01:07:07;14.77;;;6.28;;
61385;SDS011;47256;18.904;-99.054;2023-04-03T01:09:44;17.65;;;6.20;;
61385;SDS011;47256;18.904;-99.054;2023-04-03T01:12:20;10.30;;;5.90;;
61385;SDS011;47256;18.904;-99.054;2023-04-03T01:15:02;12.55;;;6.55;;
61385;SDS011;47256;18.904;-99.054;2023-04-03T01:17:32;22.17;;;7.32;;
61385;SDS011;47256;18.904;-99.054;2023-04-03T01:23:25;19.70;;;6.65;;
61385;SDS011;47256;18.904;-99.054;2023-04-03T01:25:59;14.65;;;6.53;;
61385;SDS011;47256;18.904;-99.054;2023-04-03T01:28:29;15.27;;;6.53;;
61385;SDS011;47256;18.904;-99.054;2023-04-03T01:33:54;23.83;;;6.60;;
61385;SDS011;47256;18.904;-99.054;2023-04-03T01:36:26;27.77;;;7.13;;
61385;SDS011;47256;18.904;-99.054;2023-04-03T01:38:57;6.63;;;4.72;;
61385;SDS011;47256;18.904;-99.054;2023-04-03T01:41:26;13.43;;;5.68;;
61385;SDS011;47256;18.904;-99.054;2023-04-03T01:44:00;12.13;;;6.00;;
61385;SDS011;47256;18.904;-99.054;2023-04-03T01:46:30;18.20;;;7.30;;
61385;SDS011;47256;18.904;-99.054;2023-04-03T01:49:00;12.25;;;5.72;;
61385;SDS011;47256;18.904;-99.054;2023-04-03T01:51:28;10.07;;;6.47;;
61385;SDS011;47256;18.904;-99.054;2023-04-03T01:53:58;15.00;;;5.78;;
61385;SDS011;47256;18.904;-99.054;2023-04-03T01:56:26;16.10;;;5.97;;
61385;SDS011;47256;18.904;-99.054;2023-04-03T01:58:54;11.40;;;5.22;;
61385;SDS011;47256;18.904;-99.054;2023-04-03T02:01:23;13.82;;;5.22;;
61385;SDS011;47256;18.904;-99.054;2023-04-03T02:03:54;9.02;;;4.60;;
61385;SDS011;47256;18.904;-99.054;2023-04-03T02:06:21;22.55;;;6.60;;
61385;SDS011;47256;18.904;-99.054;2023-04-03T02:08:50;9.38;;;5.38;;
61385;SDS011;47256;18.904;-99.054;2023-04-03T02:11:17;16.88;;;6.22;;
61385;SDS011;47256;18.904;-99.054;2023-04-03T02:13:45;15.88;;;6.05;;
61385;SDS011;47256;18.904;-99.054;2023-04-03T02:16:12;11.65;;;6.10;;
61385;SDS011;47256;18.904;-99.054;2023-04-03T02:18:41;15.38;;;6.20;;
61385;SDS011;47256;18.904;-99.054;2023-04-03T02:21:09;11.07;;;4.97;;
61385;SDS011;47256;18.904;-99.054;2023-04-03T02:23:36;11.00;;;5.63;;
61385;SDS011;47256;18.904;-99.054;2023-04-03T02:26:05;18.98;;;6.07;;
61385;SDS011;47256;18.904;-99.054;2023-04-03T02:28:38;28.83;;;6.22;;
61385;SDS011;47256;18.904;-99.054;2023-04-03T02:31:07;18.05;;;7.97;;
61385;SDS011;47256;18.904;-99.054;2023-04-03T02:33:41;20.33;;;7.82;;
61385;SDS011;47256;18.904;-99.054;2023-04-03T02:36:12;26.70;;;8.52;;
61385;SDS011;47256;18.904;-99.054;2023-04-03T02:38:50;19.35;;;7.63;;
61385;SDS011;47256;18.904;-99.054;2023-04-03T02:41:20;19.80;;;6.65;;
61385;SDS011;47256;18.904;-99.054;2023-04-03T02:43:49;15.70;;;7.95;;
61385;SDS011;47256;18.904;-99.054;2023-04-03T02:46:21;27.33;;;10.50;;
61385;SDS011;47256;18.904;-99.054;2023-04-03T02:48:49;20.55;;;10.95;;
61385;SDS011;47256;18.904;-99.054;2023-04-03T02:51:18;29.67;;;9.63;;
61385;SDS011;47256;18.904;-99.054;2023-04-03T02:53:46;21.95;;;9.73;;
61385;SDS011;47256;18.904;-99.054;2023-04-03T02:56:20;65.60;;;18.60;;
61385;SDS011;47256;18.904;-99.054;2023-04-03T02:58:53;148.13;;;40.60;;
61385;SDS011;47256;18.904;-99.054;2023-04-03T03:01:22;123.97;;;34.83;;
61385;SDS011;47256;18.904;-99.054;2023-04-03T03:03:50;140.93;;;35.40;;
61385;SDS011;47256;18.904;-99.054;2023-04-03T03:06:21;147.77;;;36.65;;
61385;SDS011;47256;18.904;-99.054;2023-04-03T03:08:51;118.57;;;32.45;;
61385;SDS011;47256;18.904;-99.054;2023-04-03T03:11:21;174.73;;;48.22;;
61385;SDS011;47256;18.904;-99.054;2023-04-03T03:13:50;122.78;;;38.35;;
61385;SDS011;47256;18.904;-99.054;2023-04-03T03:16:21;129.68;;;32.90;;
61385;SDS011;47256;18.904;-99.054;2023-04-03T03:18:53;89.63;;;24.92;;
61385;SDS011;47256;18.904;-99.054;2023-04-03T03:21:25;113.47;;;29.60;;
61385;SDS011;47256;18.904;-99.054;2023-04-03T03:23:56;129.85;;;31.65;;
61385;SDS011;47256;18.904;-99.054;2023-04-03T03:26:28;94.18;;;28.48;;
61385;SDS011;47256;18.904;-99.054;2023-04-03T03:28:57;90.35;;;27.90;;
61385;SDS011;47256;18.904;-99.054;2023-04-03T03:31:26;92.00;;;21.73;;
61385;SDS011;47256;18.904;-99.054;2023-04-03T03:33:57;53.58;;;18.60;;
61385;SDS011;47256;18.904;-99.054;2023-04-03T03:36:28;49.67;;;16.90;;
61385;SDS011;47256;18.904;-99.054;2023-04-03T03:39:05;33.22;;;13.15;;
61385;SDS011;47256;18.904;-99.054;2023-04-03T03:41:39;51.80;;;13.13;;
61385;SDS011;47256;18.904;-99.054;2023-04-03T03:44:10;39.30;;;15.45;;
61385;SDS011;47256;18.904;-99.054;2023-04-03T03:46:39;49.22;;;15.00;;
61385;SDS011;47256;18.904;-99.054;2023-04-03T03:49:09;40.10;;;12.63;;
61385;SDS011;47256;18.904;-99.054;2023-04-03T03:51:39;41.75;;;13.32;;
61385;SDS011;47256;18.904;-99.054;2023-04-03T03:54:09;29.25;;;12.90;;
61385;SDS011;47256;18.904;-99.054;2023-04-03T03:56:42;19.23;;;9.10;;
61385;SDS011;47256;18.904;-99.054;2023-04-03T03:59:11;27.02;;;10.52;;
61385;SDS011;47256;18.904;-99.054;2023-04-03T04:01:43;26.85;;;9.50;;
61385;SDS011;47256;18.904;-99.054;2023-04-03T04:04:13;27.70;;;12.93;;
61385;SDS011;47256;18.904;-99.054;2023-04-03T04:06:42;30.80;;;14.43;;
61385;SDS011;47256;18.904;-99.054;2023-04-03T04:09:12;34.75;;;17.13;;
61385;SDS011;47256;18.904;-99.054;2023-04-03T04:11:41;38.13;;;17.15;;
61385;SDS011;47256;18.904;-99.054;2023-04-03T04:14:11;37.53;;;16.48;;
61385;SDS011;47256;18.904;-99.054;2023-04-03T04:16:44;33.95;;;17.38;;
61385;SDS011;47256;18.904;-99.054;2023-04-03T04:19:18;34.60;;;15.77;;
61385;SDS011;47256;18.904;-99.054;2023-04-03T04:21:50;32.63;;;16.55;;
61385;SDS011;47256;18.904;-99.054;2023-04-03T04:24:19;58.30;;;23.25;;
61385;SDS011;47256;18.904;-99.054;2023-04-03T04:26:52;63.70;;;21.42;;
61385;SDS011;47256;18.904;-99.054;2023-04-03T04:29:22;41.90;;;19.33;;
61385;SDS011;47256;18.904;-99.054;2023-04-03T04:31:52;53.67;;;18.63;;
61385;SDS011;47256;18.904;-99.054;2023-04-03T04:34:23;46.08;;;19.50;;
61385;SDS011;47256;18.904;-99.054;2023-04-03T04:36:52;46.00;;;17.48;;
61385;SDS011;47256;18.904;-99.054;2023-04-03T04:39:21;27.92;;;14.52;;
61385;SDS011;47256;18.904;-99.054;2023-04-03T04:41:52;25.27;;;12.60;;
61385;SDS011;47256;18.904;-99.054;2023-04-03T04:44:22;15.48;;;9.48;;
61385;SDS011;47256;18.904;-99.054;2023-04-03T04:46:50;67.43;;;22.00;;
61385;SDS011;47256;18.904;-99.054;2023-04-03T04:49:21;29.40;;;12.35;;
61385;SDS011;47256;18.904;-99.054;2023-04-03T04:51:49;22.10;;;10.82;;
61385;SDS011;47256;18.904;-99.054;2023-04-03T04:54:19;13.98;;;9.02;;
61385;SDS011;47256;18.904;-99.054;2023-04-03T04:56:52;26.20;;;10.90;;
61385;SDS011;47256;18.904;-99.054;2023-04-03T04:59:20;29.20;;;10.93;;
61385;SDS011;47256;18.904;-99.054;2023-04-03T05:01:48;17.95;;;8.93;;
61385;SDS011;47256;18.904;-99.054;2023-04-03T05:04:45;21.30;;;10.05;;
61385;SDS011;47256;18.904;-99.054;2023-04-03T05:07:18;37.30;;;10.45;;
61385;SDS011;47256;18.904;-99.054;2023-04-03T05:09:50;25.90;;;11.52;;
61385;SDS011;47256;18.904;-99.054;2023-04-03T05:12:17;18.63;;;9.20;;
61385;SDS011;47256;18.904;-99.054;2023-04-03T05:14:51;21.85;;;10.55;;
61385;SDS011;47256;18.904;-99.054;2023-04-03T05:17:20;17.20;;;10.57;;
61385;SDS011;47256;18.904;-99.054;2023-04-03T05:19:52;12.88;;;7.93;;
61385;SDS011;47256;18.904;-99.054;2023-04-03T05:22:22;26.00;;;10.73;;
61385;SDS011;47256;18.904;-99.054;2023-04-03T05:24:52;21.83;;;9.65;;
61385;SDS011;47256;18.904;-99.054;2023-04-03T05:27:21;19.00;;;8.75;;
61385;SDS011;47256;18.904;-99.054;2023-04-03T05:29:56;19.63;;;9.82;;
61385;SDS011;47256;18.904;-99.054;2023-04-03T05:32:24;20.80;;;10.55;;
61385;SDS011;47256;18.904;-99.054;2023-04-03T05:35:12;19.63;;;10.30;;
61385;SDS011;47256;18.904;-99.054;2023-04-03T05:37:41;19.63;;;10.38;;
61385;SDS011;47256;18.904;-99.054;2023-04-03T05:40:13;28.00;;;9.70;;
61385;SDS011;47256;18.904;-99.054;2023-04-03T05:42:43;25.35;;;9.85;;
61385;SDS011;47256;18.904;-99.054;2023-04-03T05:45:12;27.25;;;10.18;;
61385;SDS011;47256;18.904;-99.054;2023-04-03T05:47:39;20.95;;;9.90;;
61385;SDS011;47256;18.904;-99.054;2023-04-03T05:50:07;14.60;;;8.88;;
61385;SDS011;47256;18.904;-99.054;2023-04-03T05:52:37;17.55;;;8.85;;
61385;SDS011;47256;18.904;-99.054;2023-04-03T05:55:10;26.45;;;10.65;;
61385;SDS011;47256;18.904;-99.054;2023-04-03T05:57:38;24.00;;;9.15;;
61385;SDS011;47256;18.904;-99.054;2023-04-03T06:00:07;19.75;;;10.07;;
61385;SDS011;47256;18.904;-99.054;2023-04-03T06:02:46;20.83;;;9.00;;
61385;SDS011;47256;18.904;-99.054;2023-04-03T06:05:22;19.33;;;9.87;;
61385;SDS011;47256;18.904;-99.054;2023-04-03T06:07:53;15.20;;;8.45;;
61385;SDS011;47256;18.904;-99.054;2023-04-03T06:10:20;16.60;;;8.18;;
61385;SDS011;47256;18.904;-99.054;2023-04-03T06:12:49;15.63;;;8.75;;
61385;SDS011;47256;18.904;-99.054;2023-04-03T06:15:17;14.70;;;9.10;;
61385;SDS011;47256;18.904;-99.054;2023-04-03T06:17:45;20.83;;;8.02;;
61385;SDS011;47256;18.904;-99.054;2023-04-03T06:20:14;19.58;;;9.02;;
61385;SDS011;47256;18.904;-99.054;2023-04-03T06:22:42;12.40;;;8.40;;
61385;SDS011;47256;18.904;-99.054;2023-04-03T06:25:10;21.95;;;7.80;;
61385;SDS011;47256;18.904;-99.054;2023-04-03T06:27:38;15.35;;;8.18;;
61385;SDS011;47256;18.904;-99.054;2023-04-03T06:30:06;11.40;;;7.18;;
61385;SDS011;47256;18.904;-99.054;2023-04-03T06:32:35;14.85;;;7.82;;
61385;SDS011;47256;18.904;-99.054;2023-04-03T06:35:02;16.27;;;8.90;;
61385;SDS011;47256;18.904;-99.054;2023-04-03T06:37:31;20.17;;;8.52;;
61385;SDS011;47256;18.904;-99.054;2023-04-03T06:39:58;23.25;;;8.52;;
61385;SDS011;47256;18.904;-99.054;2023-04-03T06:42:26;23.58;;;8.52;;
61385;SDS011;47256;18.904;-99.054;2023-04-03T06:45:18;15.13;;;7.72;;
61385;SDS011;47256;18.904;-99.054;2023-04-03T06:47:46;12.80;;;8.10;;
61385;SDS011;47256;18.904;-99.054;2023-04-03T06:50:13;15.55;;;7.65;;
61385;SDS011;47256;18.904;-99.054;2023-04-03T06:52:44;12.68;;;7.63;;
61385;SDS011;47256;18.904;-99.054;2023-04-03T06:55:11;19.45;;;7.80;;
61385;SDS011;47256;18.904;-99.054;2023-04-03T06:57:40;16.25;;;8.18;;
61385;SDS011;47256;18.904;-99.054;2023-04-03T07:00:07;15.82;;;7.80;;
61385;SDS011;47256;18.904;-99.054;2023-04-03T07:02:35;10.55;;;6.68;;
61385;SDS011;47256;18.904;-99.054;2023-04-03T07:05:03;13.35;;;8.32;;
61385;SDS011;47256;18.904;-99.054;2023-04-03T07:07:30;19.83;;;8.57;;
61385;SDS011;47256;18.904;-99.054;2023-04-03T07:09:59;20.85;;;8.10;;
61385;SDS011;47256;18.904;-99.054;2023-04-03T07:12:27;14.75;;;7.20;;
61385;SDS011;47256;18.904;-99.054;2023-04-03T07:14:54;20.50;;;7.53;;
61385;SDS011;47256;18.904;-99.054;2023-04-03T07:17:21;25.52;;;7.80;;
61385;SDS011;47256;18.904;-99.054;2023-04-03T07:19:48;13.30;;;7.20;;
61385;SDS011;47256;18.904;-99.054;2023-04-03T07:22:15;13.88;;;7.15;;
61385;SDS011;47256;18.904;-99.054;2023-04-03T07:24:45;11.05;;;7.70;;
61385;SDS011;47256;18.904;-99.054;2023-04-03T07:27:12;15.10;;;7.25;;
61385;SDS011;47256;18.904;-99.054;2023-04-03T07:29:41;14.05;;;7.50;;
61385;SDS011;47256;18.904;-99.054;2023-04-03T07:32:08;26.83;;;7.95;;
61385;SDS011;47256;18.904;-99.054;2023-04-03T07:34:36;19.75;;;8.70;;
61385;SDS011;47256;18.904;-99.054;2023-04-03T07:37:04;9.98;;;6.22;;
61385;SDS011;47256;18.904;-99.054;2023-04-03T07:39:32;13.10;;;7.75;;
61385;SDS011;47256;18.904;-99.054;2023-04-03T07:41:59;10.43;;;7.05;;
61385;SDS011;47256;18.904;-99.054;2023-04-03T07:44:28;13.43;;;6.85;;
61385;SDS011;47256;18.904;-99.054;2023-04-03T07:46:55;15.40;;;6.65;;
61385;SDS011;47256;18.904;-99.054;2023-04-03T07:49:22;11.98;;;7.03;;
61385;SDS011;47256;18.904;-99.054;2023-04-03T07:51:50;11.60;;;7.47;;
61385;SDS011;47256;18.904;-99.054;2023-04-03T07:54:19;12.73;;;7.07;;
61385;SDS011;47256;18.904;-99.054;2023-04-03T07:56:46;16.92;;;6.72;;
61385;SDS011;47256;18.904;-99.054;2023-04-03T07:59:14;15.90;;;8.07;;
61385;SDS011;47256;18.904;-99.054;2023-04-03T08:01:41;17.75;;;8.68;;
61385;SDS011;47256;18.904;-99.054;2023-04-03T08:04:08;12.90;;;7.15;;
61385;SDS011;47256;18.904;-99.054;2023-04-03T08:06:36;12.70;;;7.80;;
61385;SDS011;47256;18.904;-99.054;2023-04-03T08:09:03;24.98;;;8.00;;
61385;SDS011;47256;18.904;-99.054;2023-04-03T08:11:31;14.30;;;7.88;;
61385;SDS011;47256;18.904;-99.054;2023-04-03T08:13:58;15.93;;;7.10;;
61385;SDS011;47256;18.904;-99.054;2023-04-03T08:16:26;13.70;;;8.05;;
61385;SDS011;47256;18.904;-99.054;2023-04-03T08:18:54;15.98;;;7.40;;
61385;SDS011;47256;18.904;-99.054;2023-04-03T08:21:21;12.85;;;7.72;;
61385;SDS011;47256;18.904;-99.054;2023-04-03T08:23:49;20.27;;;7.30;;
61385;SDS011;47256;18.904;-99.054;2023-04-03T08:26:17;18.40;;;7.95;;
61385;SDS011;47256;18.904;-99.054;2023-04-03T08:28:47;17.55;;;6.95;;
61385;SDS011;47256;18.904;-99.054;2023-04-03T08:31:16;17.50;;;7.63;;
61385;SDS011;47256;18.904;-99.054;2023-04-03T08:33:45;21.00;;;8.02;;
61385;SDS011;47256;18.904;-99.054;2023-04-03T08:36:21;13.20;;;7.00;;
61385;SDS011;47256;18.904;-99.054;2023-04-03T08:38:51;15.77;;;8.20;;
61385;SDS011;47256;18.904;-99.054;2023-04-03T08:44:44;18.35;;;7.97;;
61385;SDS011;47256;18.904;-99.054;2023-04-03T08:49:37;13.85;;;7.10;;
61385;SDS011;47256;18.904;-99.054;2023-04-03T08:52:18;14.23;;;6.65;;
61385;SDS011;47256;18.904;-99.054;2023-04-03T08:54:53;10.85;;;6.47;;
61385;SDS011;47256;18.904;-99.054;2023-04-03T08:57:38;11.65;;;6.38;;
61385;SDS011;47256;18.904;-99.054;2023-04-03T09:08:28;16.85;;;5.82;;
61385;SDS011;47256;18.904;-99.054;2023-04-03T09:14:03;10.55;;;5.68;;
61385;SDS011;47256;18.904;-99.054;2023-04-03T09:17:53;17.77;;;6.45;;
61385;SDS011;47256;18.904;-99.054;2023-04-03T09:22:38;22.52;;;6.30;;
61385;SDS011;47256;18.904;-99.054;2023-04-03T09:25:17;11.02;;;6.68;;
61385;SDS011;47256;18.904;-99.054;2023-04-03T09:27:51;16.50;;;6.97;;
61385;SDS011;47256;18.904;-99.054;2023-04-03T09:30:25;10.15;;;6.22;;
61385;SDS011;47256;18.904;-99.054;2023-04-03T09:32:54;10.75;;;6.15;;
61385;SDS011;47256;18.904;-99.054;2023-04-03T09:35:29;11.43;;;6.20;;
61385;SDS011;47256;18.904;-99.054;2023-04-03T09:38:18;9.27;;;5.45;;
61385;SDS011;47256;18.904;-99.054;2023-04-03T09:41:34;11.60;;;5.57;;
61385;SDS011;47256;18.904;-99.054;2023-04-03T09:43:51;12.55;;;6.03;;
61385;SDS011;47256;18.904;-99.054;2023-04-03T09:46:28;9.15;;;5.20;;
61385;SDS011;47256;18.904;-99.054;2023-04-03T09:49:03;12.35;;;5.30;;
61385;SDS011;47256;18.904;-99.054;2023-04-03T09:51:31;10.88;;;5.43;;
61385;SDS011;47256;18.904;-99.054;2023-04-03T09:53:58;9.75;;;5.28;;
61385;SDS011;47256;18.904;-99.054;2023-04-03T09:56:28;10.55;;;6.55;;
61385;SDS011;47256;18.904;-99.054;2023-04-03T10:01:32;11.00;;;6.20;;
61385;SDS011;47256;18.904;-99.054;2023-04-03T10:04:11;23.15;;;7.60;;
61385;SDS011;47256;18.904;-99.054;2023-04-03T10:06:49;9.02;;;6.28;;
61385;SDS011;47256;18.904;-99.054;2023-04-03T10:09:30;12.80;;;7.38;;
61385;SDS011;47256;18.904;-99.054;2023-04-03T10:12:00;18.90;;;7.32;;
61385;SDS011;47256;18.904;-99.054;2023-04-03T10:14:33;13.68;;;6.03;;
61385;SDS011;47256;18.904;-99.054;2023-04-03T10:28:31;22.33;;;6.65;;
61385;SDS011;47256;18.904;-99.054;2023-04-03T10:31:25;9.60;;;5.50;;
61385;SDS011;47256;18.904;-99.054;2023-04-03T10:36:37;13.23;;;6.55;;
61385;SDS011;47256;18.904;-99.054;2023-04-03T10:47:20;14.60;;;6.20;;
61385;SDS011;47256;18.904;-99.054;2023-04-03T10:52:30;19.05;;;6.50;;
61385;SDS011;47256;18.904;-99.054;2023-04-03T10:55:24;12.07;;;6.63;;
61385;SDS011;47256;18.904;-99.054;2023-04-03T10:58:17;15.82;;;6.38;;
61385;SDS011;47256;18.904;-99.054;2023-04-03T11:00:53;15.88;;;6.90;;
61385;SDS011;47256;18.904;-99.054;2023-04-03T11:03:31;13.25;;;6.40;;
61385;SDS011;47256;18.904;-99.054;2023-04-03T11:06:12;7.10;;;5.35;;
61385;SDS011;47256;18.904;-99.054;2023-04-03T11:08:50;15.10;;;5.85;;
61385;SDS011;47256;18.904;-99.054;2023-04-03T11:11:35;11.52;;;6.13;;
61385;SDS011;47256;18.904;-99.054;2023-04-03T11:14:11;9.32;;;5.50;;
61385;SDS011;47256;18.904;-99.054;2023-04-03T11:22:31;9.90;;;5.60;;
61385;SDS011;47256;18.904;-99.054;2023-04-03T11:25:14;10.73;;;6.47;;
61385;SDS011;47256;18.904;-99.054;2023-04-03T11:27:51;12.15;;;6.47;;
61385;SDS011;47256;18.904;-99.054;2023-04-03T11:36:10;13.20;;;6.85;;
61385;SDS011;47256;18.904;-99.054;2023-04-03T11:41:54;11.80;;;5.82;;
61385;SDS011;47256;18.904;-99.054;2023-04-03T11:44:29;13.73;;;6.60;;
61385;SDS011;47256;18.904;-99.054;2023-04-03T11:47:04;17.33;;;6.85;;
61385;SDS011;47256;18.904;-99.054;2023-04-03T12:00:47;8.00;;;4.88;;
61385;SDS011;47256;18.904;-99.054;2023-04-03T12:08:43;11.95;;;5.43;;
61385;SDS011;47256;18.904;-99.054;2023-04-03T12:11:28;11.45;;;5.45;;
61385;SDS011;47256;18.904;-99.054;2023-04-03T12:16:28;18.23;;;5.95;;
61385;SDS011;47256;18.904;-99.054;2023-04-03T12:26:47;15.98;;;5.75;;
61385;SDS011;47256;18.904;-99.054;2023-04-03T12:29:27;19.52;;;6.60;;
61385;SDS011;47256;18.904;-99.054;2023-04-03T12:43:12;15.23;;;5.85;;
61385;SDS011;47256;18.904;-99.054;2023-04-03T12:46:07;23.52;;;6.45;;
61385;SDS011;47256;18.904;-99.054;2023-04-03T12:54:20;12.30;;;5.75;;
61385;SDS011;47256;18.904;-99.054;2023-04-03T12:57:08;18.02;;;8.75;;
61385;SDS011;47256;18.904;-99.054;2023-04-03T12:59:43;17.55;;;7.30;;
61385;SDS011;47256;18.904;-99.054;2023-04-03T13:02:22;28.88;;;7.63;;
61385;SDS011;47256;18.904;-99.054;2023-04-03T13:04:53;19.77;;;8.15;;
61385;SDS011;47256;18.904;-99.054;2023-04-03T13:07:33;18.88;;;8.80;;
61385;SDS011;47256;18.904;-99.054;2023-04-03T13:12:53;15.00;;;5.80;;
61385;SDS011;47256;18.904;-99.054;2023-04-03T13:15:27;13.27;;;6.68;;
61385;SDS011;47256;18.904;-99.054;2023-04-03T13:17:56;19.80;;;8.82;;
61385;SDS011;47256;18.904;-99.054;2023-04-03T13:20:27;25.00;;;7.13;;
61385;SDS011;47256;18.904;-99.054;2023-04-03T13:23:01;24.85;;;9.20;;
61385;SDS011;47256;18.904;-99.054;2023-04-03T13:28:07;28.63;;;10.48;;
61385;SDS011;47256;18.904;-99.054;2023-04-03T13:30:39;30.92;;;11.15;;
61385;SDS011;47256;18.904;-99.054;2023-04-03T13:33:19;20.70;;;9.23;;
61385;SDS011;47256;18.904;-99.054;2023-04-03T13:35:54;21.60;;;7.70;;
61385;SDS011;47256;18.904;-99.054;2023-04-03T13:38:28;20.02;;;9.10;;
61385;SDS011;47256;18.904;-99.054;2023-04-03T13:41:04;13.77;;;7.53;;
61385;SDS011;47256;18.904;-99.054;2023-04-03T13:43:51;14.65;;;7.45;;
61385;SDS011;47256;18.904;-99.054;2023-04-03T13:48:49;17.23;;;8.13;;
61385;SDS011;47256;18.904;-99.054;2023-04-03T13:51:25;19.52;;;8.35;;
61385;SDS011;47256;18.904;-99.054;2023-04-03T13:53:58;17.25;;;7.75;;
61385;SDS011;47256;18.904;-99.054;2023-04-03T14:01:44;18.45;;;8.45;;
61385;SDS011;47256;18.904;-99.054;2023-04-03T14:04:45;16.08;;;8.85;;
61385;SDS011;47256;18.904;-99.054;2023-04-03T14:07:16;13.65;;;7.28;;
61385;SDS011;47256;18.904;-99.054;2023-04-03T14:09:45;20.48;;;8.75;;
61385;SDS011;47256;18.904;-99.054;2023-04-03T14:12:16;34.17;;;13.25;;
61385;SDS011;47256;18.904;-99.054;2023-04-03T14:14:44;63.25;;;19.58;;
61385;SDS011;47256;18.904;-99.054;2023-04-03T14:17:17;44.13;;;18.17;;
61385;SDS011;47256;18.904;-99.054;2023-04-03T14:19:47;43.50;;;15.52;;
61385;SDS011;47256;18.904;-99.054;2023-04-03T14:24:51;21.25;;;11.60;;
61385;SDS011;47256;18.904;-99.054;2023-04-03T14:27:24;49.78;;;19.30;;
61385;SDS011;47256;18.904;-99.054;2023-04-03T14:29:55;27.88;;;13.40;;
61385;SDS011;47256;18.904;-99.054;2023-04-03T14:32:25;17.13;;;10.02;;
61385;SDS011;47256;18.904;-99.054;2023-04-03T14:34:53;27.70;;;11.43;;
61385;SDS011;47256;18.904;-99.054;2023-04-03T14:37:23;36.60;;;11.63;;
61385;SDS011;47256;18.904;-99.054;2023-04-03T14:39:53;26.90;;;11.20;;
61385;SDS011;47256;18.904;-99.054;2023-04-03T14:42:26;24.02;;;11.15;;
61385;SDS011;47256;18.904;-99.054;2023-04-03T14:44:57;29.52;;;11.52;;
61385;SDS011;47256;18.904;-99.054;2023-04-03T14:47:28;21.85;;;9.25;;
61385;SDS011;47256;18.904;-99.054;2023-04-03T14:49:56;21.17;;;9.93;;
61385;SDS011;47256;18.904;-99.054;2023-04-03T14:52:31;14.60;;;7.78;;
61385;SDS011;47256;18.904;-99.054;2023-04-03T14:55:01;23.90;;;10.20;;
61385;SDS011;47256;18.904;-99.054;2023-04-03T14:57:34;15.45;;;7.55;;
61385;SDS011;47256;18.904;-99.054;2023-04-03T15:00:02;17.38;;;7.95;;
61385;SDS011;47256;18.904;-99.054;2023-04-03T15:02:34;16.05;;;8.77;;
61385;SDS011;47256;18.904;-99.054;2023-04-03T15:05:07;14.10;;;6.18;;
61385;SDS011;47256;18.904;-99.054;2023-04-03T15:07:37;20.75;;;6.38;;
61385;SDS011;47256;18.904;-99.054;2023-04-03T15:10:20;14.88;;;6.22;;
61385;SDS011;47256;18.904;-99.054;2023-04-03T15:12:51;11.52;;;6.47;;
61385;SDS011;47256;18.904;-99.054;2023-04-03T15:15:20;12.73;;;7.15;;
61385;SDS011;47256;18.904;-99.054;2023-04-03T15:17:52;15.00;;;5.43;;
61385;SDS011;47256;18.904;-99.054;2023-04-03T15:20:27;10.50;;;4.93;;
61385;SDS011;47256;18.904;-99.054;2023-04-03T15:22:59;5.65;;;4.55;;
61385;SDS011;47256;18.904;-99.054;2023-04-03T15:25:27;7.05;;;4.38;;
61385;SDS011;47256;18.904;-99.054;2023-04-03T15:27:55;7.53;;;5.05;;
61385;SDS011;47256;18.904;-99.054;2023-04-03T15:30:23;14.68;;;4.55;;
61385;SDS011;47256;18.904;-99.054;2023-04-03T15:32:50;14.00;;;4.38;;
61385;SDS011;47256;18.904;-99.054;2023-04-03T15:35:20;7.10;;;4.45;;
61385;SDS011;47256;18.904;-99.054;2023-04-03T15:46:35;16.33;;;7.97;;
61385;SDS011;47256;18.904;-99.054;2023-04-03T15:50:17;15.90;;;6.70;;
61385;SDS011;47256;18.904;-99.054;2023-04-03T15:53:58;8.32;;;4.97;;
61385;SDS011;47256;18.904;-99.054;2023-04-03T15:57:25;9.68;;;6.05;;
61385;SDS011;47256;18.904;-99.054;2023-04-03T16:00:55;12.77;;;6.85;;
61385;SDS011;47256;18.904;-99.054;2023-04-03T16:04:37;8.93;;;6.28;;
61385;SDS011;47256;18.904;-99.054;2023-04-03T16:08:19;12.15;;;6.60;;
61385;SDS011;47256;18.904;-99.054;2023-04-03T16:12:01;10.77;;;6.88;;
61385;SDS011;47256;18.904;-99.054;2023-04-03T16:15:31;9.32;;;6.50;;
61385;SDS011;47256;18.904;-99.054;2023-04-03T16:18:54;16.45;;;7.32;;
61385;SDS011;47256;18.904;-99.054;2023-04-03T16:22:31;13.77;;;7.85;;
61385;SDS011;47256;18.904;-99.054;2023-04-03T16:26:12;12.60;;;7.57;;
61385;SDS011;47256;18.904;-99.054;2023-04-03T16:29:38;11.27;;;7.60;;
61385;SDS011;47256;18.904;-99.054;2023-04-03T16:33:16;13.63;;;7.38;;
61385;SDS011;47256;18.904;-99.054;2023-04-03T16:36:39;10.50;;;5.97;;
61385;SDS011;47256;18.904;-99.054;2023-04-03T16:40:20;11.48;;;6.90;;
61385;SDS011;47256;18.904;-99.054;2023-04-03T16:43:42;11.90;;;7.75;;
61385;SDS011;47256;18.904;-99.054;2023-04-03T16:47:04;8.48;;;6.15;;
61385;SDS011;47256;18.904;-99.054;2023-04-03T16:50:28;20.20;;;6.90;;
61385;SDS011;47256;18.904;-99.054;2023-04-03T16:53:51;13.02;;;6.95;;
61385;SDS011;47256;18.904;-99.054;2023-04-03T16:57:27;10.30;;;6.47;;
61385;SDS011;47256;18.904;-99.054;2023-04-03T17:00:50;11.25;;;6.47;;
61385;SDS011;47256;18.904;-99.054;2023-04-03T17:04:13;19.10;;;7.15;;
61385;SDS011;47256;18.904;-99.054;2023-04-03T17:07:37;6.60;;;4.93;;
61385;SDS011;47256;18.904;-99.054;2023-04-03T17:11:07;7.47;;;4.80;;
61385;SDS011;47256;18.904;-99.054;2023-04-03T17:14:29;7.95;;;4.85;;